createdAt,value
2022-09-16T00:02:26.198Z,7.65
2022-09-16T00:04:54.570Z,6.75
2022-09-16T00:07:21.943Z,5.68
2022-09-16T00:09:49.292Z,7.22
2022-09-16T00:12:16.555Z,12.18
2022-09-16T00:14:43.824Z,12.48
2022-09-16T00:17:11.205Z,5.13
2022-09-16T00:19:38.515Z,8.07
2022-09-16T00:22:06.240Z,8.15
2022-09-16T00:24:33.552Z,14.57
2022-09-16T00:27:00.867Z,10.65
2022-09-16T00:29:28.523Z,17.58
2022-09-16T00:31:55.925Z,9.52
2022-09-16T00:34:26.557Z,10.05
2022-09-16T00:36:54.958Z,8.25
2022-09-16T00:39:22.248Z,11.20
2022-09-16T00:41:49.952Z,11.10
2022-09-16T00:44:53.307Z,9.55
2022-09-16T00:47:38.971Z,9.73
2022-09-16T00:50:31.285Z,11.27
2022-09-16T00:53:00.619Z,7.90
2022-09-16T00:55:48.612Z,11.02
2022-09-16T00:58:28.665Z,9.70
2022-09-16T01:00:56.217Z,8.57
2022-09-16T01:03:24.293Z,9.65
2022-09-16T01:05:52.658Z,7.93
2022-09-16T01:08:20.050Z,11.43
2022-09-16T01:10:47.352Z,12.80
2022-09-16T01:13:16.214Z,13.02
2022-09-16T01:15:55.053Z,11.35
2022-09-16T01:18:46.844Z,11.77
2022-09-16T01:21:33.905Z,9.13
2022-09-16T01:24:08.030Z,6.97
2022-09-16T01:27:17.367Z,7.70
2022-09-16T01:30:06.726Z,11.00
2022-09-16T01:33:16.813Z,11.25
2022-09-16T01:35:47.195Z,8.45
2022-09-16T01:38:34.155Z,11.25
2022-09-16T01:41:28.292Z,8.45
2022-09-16T01:44:21.601Z,12.55
2022-09-16T01:47:28.349Z,9.48
2022-09-16T01:50:28.441Z,10.32
2022-09-16T01:53:00.166Z,7.45
2022-09-16T01:55:46.960Z,12.55
2022-09-16T01:58:17.849Z,9.45
2022-09-16T02:00:46.315Z,10.98
2022-09-16T02:03:23.911Z,15.23
2022-09-16T02:06:15.100Z,12.10
2022-09-16T02:08:51.224Z,7.82
2022-09-16T02:11:19.792Z,8.38
2022-09-16T02:14:01.685Z,10.85
2022-09-16T02:16:39.215Z,5.35
2022-09-16T02:21:56.676Z,15.25
2022-09-16T02:24:27.545Z,8.82
2022-09-16T02:27:18.368Z,8.73
2022-09-16T02:30:01.678Z,7.10
2022-09-16T02:32:34.101Z,8.32
2022-09-16T02:35:06.852Z,10.30
2022-09-16T02:37:42.655Z,7.07
2022-09-16T02:40:42.039Z,7.15
2022-09-16T02:43:09.421Z,5.47
2022-09-16T02:45:55.185Z,6.30
2022-09-16T02:48:58.334Z,8.50
2022-09-16T02:51:40.360Z,12.13
2022-09-16T02:54:32.352Z,6.43
2022-09-16T02:57:00.695Z,7.13
2022-09-16T02:59:28.194Z,7.47
2022-09-16T03:01:55.546Z,10.13
2022-09-16T03:04:22.987Z,5.93
2022-09-16T03:06:50.447Z,7.40
2022-09-16T03:09:18.544Z,8.23
2022-09-16T03:11:58.626Z,5.65
2022-09-16T03:15:26.936Z,6.63
2022-09-16T03:18:10.553Z,5.47
2022-09-16T03:21:01.247Z,6.82
2022-09-16T03:23:44.945Z,9.15
2022-09-16T03:29:49.362Z,8.43
2022-09-16T03:33:10.650Z,11.77
2022-09-16T03:35:45.653Z,6.45
2022-09-16T03:38:13.876Z,9.65
2022-09-16T03:40:42.979Z,4.93
2022-09-16T03:43:12.958Z,6.82
2022-09-16T03:45:43.342Z,9.07
2022-09-16T03:48:12.456Z,9.93
2022-09-16T03:50:40.177Z,6.13
2022-09-16T03:53:07.655Z,7.15
2022-09-16T03:55:34.980Z,7.88
2022-09-16T03:58:03.825Z,12.00
2022-09-16T04:00:31.469Z,9.43
2022-09-16T04:03:00.675Z,6.38
2022-09-16T04:05:28.420Z,9.80
2022-09-16T04:07:57.035Z,10.27
2022-09-16T04:10:24.532Z,7.88
2022-09-16T04:12:51.820Z,13.55
2022-09-16T04:15:19.054Z,6.80
2022-09-16T04:17:47.997Z,9.65
2022-09-16T04:20:15.450Z,8.40
2022-09-16T04:22:42.770Z,13.35
2022-09-16T04:25:10.173Z,11.57
2022-09-16T04:27:37.517Z,11.05
2022-09-16T04:30:25.211Z,9.27
2022-09-16T04:32:56.726Z,9.38
2022-09-16T04:35:25.362Z,11.73
2022-09-16T04:37:54.193Z,7.80
2022-09-16T04:40:21.835Z,5.07
2022-09-16T04:43:14.892Z,7.82
2022-09-16T04:45:42.152Z,9.98
2022-09-16T04:48:09.467Z,12.38
2022-09-16T04:50:39.696Z,15.80
2022-09-16T04:53:07.071Z,7.82
2022-09-16T04:55:37.406Z,14.43
2022-09-16T04:58:04.805Z,7.75
2022-09-16T05:00:32.506Z,5.35
2022-09-16T05:02:59.807Z,10.57
2022-09-16T05:05:30.916Z,7.18
2022-09-16T05:08:38.617Z,5.47
2022-09-16T05:11:12.137Z,9.43
2022-09-16T05:13:40.205Z,4.75
2022-09-16T05:16:28.468Z,6.65
2022-09-16T05:19:05.095Z,6.40
2022-09-16T05:21:39.109Z,10.88
2022-09-16T05:24:11.097Z,6.40
2022-09-16T05:26:42.096Z,7.55
2022-09-16T05:29:13.434Z,7.32
2022-09-16T05:31:42.677Z,6.25
2022-09-16T05:34:14.201Z,8.85
2022-09-16T05:36:43.825Z,8.57
2022-09-16T05:39:22.793Z,12.52
2022-09-16T05:42:00.367Z,13.93
2022-09-16T05:44:28.943Z,9.73
2022-09-16T05:46:57.350Z,10.55
2022-09-16T05:49:24.807Z,9.38
2022-09-16T05:51:53.128Z,11.43
2022-09-16T05:54:41.124Z,13.13
2022-09-16T05:57:08.631Z,9.77
2022-09-16T05:59:35.964Z,11.43
2022-09-16T06:02:03.742Z,8.65
2022-09-16T06:04:31.070Z,10.70
2022-09-16T06:06:59.799Z,5.85
2022-09-16T06:09:29.938Z,6.53
2022-09-16T06:12:01.978Z,4.70
2022-09-16T06:14:30.995Z,5.82
2022-09-16T06:16:58.670Z,11.75
2022-09-16T06:19:26.003Z,10.07
2022-09-16T06:21:53.380Z,6.45
2022-09-16T06:24:36.921Z,4.72
2022-09-16T06:29:31.447Z,10.07
2022-09-16T06:31:58.785Z,5.68
2022-09-16T06:34:27.167Z,13.45
2022-09-16T06:36:58.709Z,5.72
2022-09-16T06:39:26.258Z,8.98
2022-09-16T06:41:53.690Z,6.28
2022-09-16T06:44:30.520Z,9.77
2022-09-16T06:47:00.012Z,14.88
2022-09-16T06:49:28.512Z,7.97
2022-09-16T06:51:58.601Z,16.88
2022-09-16T06:54:26.057Z,6.93
2022-09-16T06:56:53.369Z,10.65
2022-09-16T06:59:20.656Z,9.18
2022-09-16T07:01:48.066Z,10.60
2022-09-16T07:04:15.335Z,6.80
2022-09-16T07:07:08.200Z,6.50
2022-09-16T07:09:30.215Z,8.05
2022-09-16T07:12:05.302Z,6.55
2022-09-16T07:14:32.796Z,9.35
2022-09-16T07:17:04.530Z,7.85
2022-09-16T07:19:31.899Z,6.53
2022-09-16T07:21:59.340Z,3.67
2022-09-16T07:24:27.125Z,6.85
2022-09-16T07:26:54.477Z,9.38
2022-09-16T07:29:22.015Z,9.40
2022-09-16T07:31:57.263Z,8.77
2022-09-16T07:34:24.654Z,16.38
2022-09-16T07:36:53.509Z,6.10
2022-09-16T07:39:23.841Z,10.77
2022-09-16T07:41:51.188Z,11.63
2022-09-16T07:44:20.510Z,7.72
2022-09-16T07:46:48.411Z,11.85
2022-09-16T07:49:24.307Z,14.02
2022-09-16T07:51:51.577Z,9.48
2022-09-16T07:54:20.082Z,6.65
2022-09-16T07:56:47.568Z,5.40
2022-09-16T07:59:19.040Z,10.80
2022-09-16T08:01:48.765Z,9.48
2022-09-16T08:04:17.205Z,17.75
2022-09-16T08:06:44.528Z,9.95
2022-09-16T08:09:36.741Z,11.20
2022-09-16T08:12:04.656Z,8.90
2022-09-16T08:14:36.755Z,9.25
2022-09-16T08:17:04.320Z,8.68
2022-09-16T08:19:31.720Z,9.95
2022-09-16T08:21:59.290Z,11.25
2022-09-16T08:24:26.797Z,15.48
2022-09-16T08:29:27.238Z,12.43
2022-09-16T08:31:54.702Z,7.78
2022-09-16T08:34:22.140Z,9.27
2022-09-16T08:36:49.493Z,12.45
2022-09-16T08:39:16.893Z,5.20
2022-09-16T08:41:44.281Z,11.18
2022-09-16T08:44:23.688Z,6.85
2022-09-16T08:46:58.950Z,17.52
2022-09-16T08:49:47.126Z,8.13
2022-09-16T08:52:50.168Z,11.50
2022-09-16T08:55:37.751Z,8.57
2022-09-16T08:58:15.097Z,12.27
2022-09-16T09:00:49.093Z,13.35
2022-09-16T09:03:37.068Z,6.20
2022-09-16T09:06:31.385Z,8.60
2022-09-16T09:09:32.133Z,10.38
2022-09-16T09:12:16.395Z,4.78
2022-09-16T09:15:05.945Z,9.02
2022-09-16T09:17:48.192Z,11.57
2022-09-16T09:20:37.058Z,6.18
2022-09-16T09:23:07.129Z,7.13
2022-09-16T09:25:43.801Z,9.23
2022-09-16T09:28:17.733Z,7.63
2022-09-16T09:30:57.904Z,11.52
2022-09-16T09:36:30.709Z,7.47
2022-09-16T09:39:35.477Z,10.68
2022-09-16T09:42:22.787Z,9.55
2022-09-16T09:45:29.788Z,9.55
2022-09-16T09:48:25.341Z,11.60
2022-09-16T09:50:53.659Z,8.82
2022-09-16T09:53:30.867Z,7.18
2022-09-16T09:56:21.195Z,11.15
2022-09-16T09:58:54.408Z,9.10
2022-09-16T10:01:21.959Z,10.18
2022-09-16T10:04:01.447Z,8.75
2022-09-16T10:06:35.973Z,5.47
2022-09-16T10:09:03.388Z,5.95
2022-09-16T10:11:34.044Z,6.90
2022-09-16T10:14:02.605Z,8.52
2022-09-16T10:16:47.347Z,7.50
2022-09-16T10:19:29.317Z,10.57
2022-09-16T10:22:10.093Z,7.68
2022-09-16T10:24:40.249Z,4.63
2022-09-16T10:27:27.027Z,8.05
2022-09-16T10:30:15.916Z,8.70
2022-09-16T10:33:13.265Z,6.93
2022-09-16T10:35:51.276Z,6.93
2022-09-16T10:38:21.257Z,6.72
2022-09-16T10:40:57.925Z,2.25
2022-09-16T10:43:26.969Z,8.00
2022-09-16T10:45:54.882Z,5.63
2022-09-16T10:48:27.144Z,9.35
2022-09-16T10:51:22.993Z,4.63
2022-09-16T10:53:58.923Z,4.97
2022-09-16T10:56:32.894Z,7.20
2022-09-16T10:59:07.067Z,4.65
2022-09-16T11:02:16.668Z,5.75
2022-09-16T11:05:27.385Z,7.88
2022-09-16T11:08:20.702Z,8.43
2022-09-16T11:11:20.261Z,4.65
2022-09-16T11:13:56.504Z,5.25
2022-09-16T11:16:48.967Z,11.77
2022-09-16T11:19:45.918Z,6.20
2022-09-16T11:22:32.007Z,8.85
2022-09-16T11:25:14.369Z,6.38
2022-09-16T11:27:53.536Z,5.10
2022-09-16T11:30:22.537Z,7.90
2022-09-16T11:33:17.160Z,2.95
2022-09-16T11:35:48.076Z,7.25
2022-09-16T11:38:21.388Z,4.80
2022-09-16T11:41:14.953Z,6.95
2022-09-16T11:43:45.438Z,3.00
2022-09-16T11:46:34.136Z,10.25
2022-09-16T11:49:22.656Z,7.63
2022-09-16T11:52:14.614Z,9.75
2022-09-16T11:54:55.452Z,10.70
2022-09-16T11:57:29.875Z,8.00
2022-09-16T12:00:10.696Z,8.10
2022-09-16T12:03:01.785Z,6.05
2022-09-16T12:05:56.268Z,3.60
2022-09-16T12:08:32.135Z,9.65
2022-09-16T12:11:22.185Z,8.35
2022-09-16T12:14:14.336Z,4.68
2022-09-16T12:17:10.827Z,7.00
2022-09-16T12:20:34.018Z,6.90
2022-09-16T12:23:14.788Z,5.63
2022-09-16T12:26:17.027Z,6.93
2022-09-16T12:29:21.628Z,9.60
2022-09-16T12:32:36.038Z,6.15
2022-09-16T12:35:18.995Z,6.30
2022-09-16T12:38:27.156Z,9.07
2022-09-16T12:41:09.409Z,6.13
2022-09-16T12:43:51.780Z,8.73
2022-09-16T12:47:00.994Z,9.47
2022-09-16T12:49:31.079Z,5.65
2022-09-16T12:52:27.465Z,8.77
2022-09-16T12:55:16.066Z,4.28
2022-09-16T12:58:11.140Z,4.75
2022-09-16T13:00:56.933Z,6.60
2022-09-16T13:04:12.453Z,4.68
2022-09-16T13:07:08.220Z,6.13
2022-09-16T13:10:04.034Z,11.80
2022-09-16T13:12:40.942Z,5.95
2022-09-16T13:15:34.639Z,6.07
2022-09-16T13:18:14.044Z,6.70
2022-09-16T13:20:57.688Z,6.45
2022-09-16T13:23:42.009Z,7.30
2022-09-16T13:26:10.591Z,4.50
2022-09-16T13:31:46.729Z,6.40
2022-09-16T13:34:17.354Z,6.63
2022-09-16T13:36:44.881Z,3.38
2022-09-16T13:39:15.501Z,8.52
2022-09-16T13:41:47.346Z,6.80
2022-09-16T13:44:39.785Z,10.32
2022-09-16T13:47:57.037Z,10.68
2022-09-16T13:50:26.270Z,7.07
2022-09-16T13:53:00.365Z,4.50
2022-09-16T13:55:28.114Z,6.82
2022-09-16T13:58:04.287Z,6.53
2022-09-16T14:01:08.859Z,6.70
2022-09-16T14:03:54.368Z,4.72
2022-09-16T14:06:45.054Z,5.97
2022-09-16T14:09:24.261Z,9.57
2022-09-16T14:12:43.306Z,7.45
2022-09-16T14:15:15.673Z,4.47
2022-09-16T14:17:51.775Z,4.50
2022-09-16T14:20:22.063Z,4.97
2022-09-16T14:23:01.467Z,7.65
2022-09-16T14:25:36.795Z,7.80
2022-09-16T14:28:27.958Z,3.10
2022-09-16T14:31:02.938Z,9.70
2022-09-16T14:33:34.919Z,2.35
2022-09-16T14:36:14.654Z,5.97
2022-09-16T14:39:12.142Z,5.28
2022-09-16T14:41:56.085Z,7.15
2022-09-16T14:44:41.546Z,6.28
2022-09-16T14:47:47.356Z,3.50
2022-09-16T14:50:24.728Z,3.08
2022-09-16T14:53:35.852Z,6.15
2022-09-16T14:56:05.253Z,3.28
2022-09-16T14:58:33.783Z,4.05
2022-09-16T15:01:10.327Z,3.55
2022-09-16T15:04:02.872Z,4.90
2022-09-16T15:06:39.897Z,6.05
2022-09-16T15:09:21.437Z,4.30
2022-09-16T15:11:57.780Z,7.47
2022-09-16T15:14:26.593Z,2.95
2022-09-16T15:16:58.514Z,4.68
2022-09-16T15:19:35.925Z,4.32
2022-09-16T15:22:24.565Z,5.40
2022-09-16T15:24:59.210Z,5.35
2022-09-16T15:27:35.254Z,3.60
2022-09-16T15:30:07.345Z,3.25
2022-09-16T15:32:43.952Z,3.28
2022-09-16T15:35:26.965Z,3.10
2022-09-16T15:37:55.212Z,3.75
2022-09-16T15:40:25.592Z,3.22
2022-09-16T15:43:21.857Z,5.25
2022-09-16T15:46:35.618Z,3.38
2022-09-16T15:49:11.137Z,5.25
2022-09-16T15:51:51.477Z,3.22
2022-09-16T15:54:33.962Z,4.80
2022-09-16T15:57:31.679Z,5.30
2022-09-16T16:00:25.044Z,8.57
2022-09-16T16:02:56.864Z,7.78
2022-09-16T16:05:29.497Z,4.03
2022-09-16T16:08:08.936Z,4.25
2022-09-16T16:10:38.408Z,4.22
2022-09-16T16:13:05.818Z,4.72
2022-09-16T16:15:36.817Z,6.47
2022-09-16T16:18:10.738Z,3.47
2022-09-16T16:20:40.371Z,5.00
2022-09-16T16:23:08.136Z,6.60
2022-09-16T16:25:35.453Z,3.88
2022-09-16T16:28:02.752Z,3.75
2022-09-16T16:30:32.775Z,11.50
2022-09-16T16:33:00.127Z,4.07
2022-09-16T16:35:27.410Z,6.45
2022-09-16T16:37:54.669Z,5.40
2022-09-16T16:40:21.969Z,4.57
2022-09-16T16:42:49.290Z,4.43
2022-09-16T16:45:16.711Z,5.72
2022-09-16T16:47:44.499Z,5.28
2022-09-16T16:50:11.762Z,7.72
2022-09-16T16:52:39.578Z,6.30
2022-09-16T16:55:17.097Z,4.63
2022-09-16T16:57:44.740Z,8.70
2022-09-16T17:00:16.306Z,5.22
2022-09-16T17:02:43.769Z,7.68
2022-09-16T17:05:11.290Z,6.13
2022-09-16T17:07:39.075Z,5.97
2022-09-16T17:10:07.909Z,4.97
2022-09-16T17:12:35.159Z,4.88
2022-09-16T17:15:07.044Z,4.32
2022-09-16T17:17:34.344Z,7.20
2022-09-16T17:20:09.224Z,5.95
2022-09-16T17:22:36.603Z,4.03
2022-09-16T17:25:07.246Z,4.95
2022-09-16T17:27:34.529Z,8.00
2022-09-16T17:30:02.240Z,9.43
2022-09-16T17:32:29.589Z,6.60
2022-09-16T17:34:59.852Z,4.45
2022-09-16T17:37:27.122Z,7.82
2022-09-16T17:40:18.078Z,6.05
2022-09-16T17:42:46.041Z,6.15
2022-09-16T17:45:43.434Z,4.95
2022-09-16T17:48:10.719Z,5.30
2022-09-16T17:50:38.639Z,7.05
2022-09-16T17:53:05.970Z,9.73
2022-09-16T17:55:33.271Z,4.85
2022-09-16T17:58:02.333Z,8.75
2022-09-16T18:04:02.945Z,10.32
2022-09-16T18:06:51.236Z,5.82
2022-09-16T18:09:18.714Z,7.18
2022-09-16T18:11:46.227Z,6.68
2022-09-16T18:14:14.138Z,4.63
2022-09-16T18:16:42.118Z,5.15
2022-09-16T18:19:09.841Z,7.82
2022-09-16T18:21:53.977Z,4.88
2022-09-16T18:24:21.485Z,7.10
2022-09-16T18:26:49.466Z,9.68
2022-09-16T18:29:29.199Z,8.57
2022-09-16T18:31:56.509Z,8.63
2022-09-16T18:34:24.781Z,7.13
2022-09-16T18:36:52.213Z,6.72
2022-09-16T18:39:19.553Z,6.63
2022-09-16T18:41:46.955Z,7.93
2022-09-16T18:44:19.767Z,7.00
2022-09-16T18:46:48.046Z,8.85
2022-09-16T18:49:56.019Z,7.47
2022-09-16T18:52:23.337Z,6.25
2022-09-16T18:54:50.691Z,11.20
2022-09-16T18:57:18.041Z,6.68
2022-09-16T18:59:45.445Z,8.98
2022-09-16T19:02:14.387Z,6.32
2022-09-16T19:04:43.069Z,7.40
2022-09-16T19:07:13.965Z,9.20
2022-09-16T19:09:41.374Z,7.53
2022-09-16T19:12:13.434Z,11.02
2022-09-16T19:15:05.688Z,6.70
2022-09-16T19:17:40.125Z,4.38
2022-09-16T19:20:07.929Z,6.03
2022-09-16T19:22:38.628Z,6.65
2022-09-16T19:25:07.048Z,7.00
2022-09-16T19:27:34.710Z,6.47
2022-09-16T19:30:22.347Z,6.82
2022-09-16T19:32:58.525Z,7.22
2022-09-16T19:35:33.212Z,9.43
2022-09-16T19:38:01.591Z,12.73
2022-09-16T19:40:29.383Z,16.25
2022-09-16T19:43:00.601Z,12.07
2022-09-16T19:45:28.063Z,5.00
2022-09-16T19:47:55.716Z,8.70
2022-09-16T19:50:23.753Z,9.30
2022-09-16T19:55:35.738Z,7.65
2022-09-16T19:58:09.243Z,7.88
2022-09-16T20:00:55.480Z,7.68
2022-09-16T20:03:26.537Z,6.60
2022-09-16T20:06:02.170Z,5.60
2022-09-16T20:08:30.760Z,8.43
2022-09-16T20:11:16.926Z,3.03
2022-09-16T20:13:57.364Z,4.90
2022-09-16T20:17:08.164Z,4.60
2022-09-16T20:19:53.085Z,7.97
2022-09-16T20:22:23.458Z,12.23
2022-09-16T20:25:06.273Z,4.53
2022-09-16T20:27:37.972Z,1.35
2022-09-16T20:30:05.847Z,1.83
2022-09-16T20:32:33.263Z,1.50
2022-09-16T20:35:00.575Z,2.35
2022-09-16T20:37:42.892Z,1.27
2022-09-16T20:40:10.265Z,1.52
2022-09-16T20:42:37.577Z,2.47
2022-09-16T20:45:05.218Z,2.75
2022-09-16T20:47:32.619Z,2.35
2022-09-16T20:50:00.841Z,3.28
2022-09-16T20:52:28.141Z,3.88
2022-09-16T20:54:58.023Z,2.28
2022-09-16T20:57:25.490Z,1.30
2022-09-16T20:59:52.797Z,5.35
2022-09-16T21:02:20.178Z,2.75
2022-09-16T21:04:48.713Z,1.90
2022-09-16T21:07:16.271Z,1.73
2022-09-16T21:09:43.729Z,1.50
2022-09-16T21:12:12.774Z,1.83
2022-09-16T21:14:40.423Z,2.35
2022-09-16T21:17:07.983Z,3.63
2022-09-16T21:19:35.440Z,0.88
2022-09-16T21:22:05.386Z,2.75
2022-09-16T21:24:32.773Z,2.50
2022-09-16T21:27:00.504Z,2.20
2022-09-16T21:29:27.926Z,2.45
2022-09-16T21:31:56.440Z,5.30
2022-09-16T21:34:24.727Z,1.27
2022-09-16T21:36:52.412Z,4.90
2022-09-16T21:39:20.890Z,1.60
2022-09-16T21:41:49.014Z,3.50
2022-09-16T21:44:17.098Z,2.05
2022-09-16T21:46:46.651Z,3.15
2022-09-16T21:49:32.741Z,3.55
2022-09-16T21:52:00.035Z,3.25
2022-09-16T21:54:28.668Z,1.33
2022-09-16T21:56:56.043Z,1.88
2022-09-16T21:59:23.662Z,2.47
2022-09-16T22:01:53.800Z,1.17
2022-09-16T22:04:30.481Z,1.48
2022-09-16T22:06:57.793Z,2.70
2022-09-16T22:09:25.170Z,2.45
2022-09-16T22:11:52.837Z,1.23
2022-09-16T22:14:20.210Z,0.55
2022-09-16T22:16:47.632Z,1.42
2022-09-16T22:19:22.155Z,3.53
2022-09-16T22:22:05.866Z,7.45
2022-09-16T22:24:33.500Z,1.23
2022-09-16T22:27:00.848Z,1.70
2022-09-16T22:29:28.508Z,0.77
2022-09-16T22:31:55.921Z,0.52
2022-09-16T22:34:23.519Z,0.38
2022-09-16T22:36:51.075Z,1.92
2022-09-16T22:39:19.947Z,0.68
2022-09-16T22:41:49.241Z,0.80
2022-09-16T22:44:16.586Z,1.58
2022-09-16T22:46:46.426Z,0.40
2022-09-16T22:49:16.082Z,0.52
2022-09-16T22:51:43.729Z,0.88
2022-09-16T22:54:12.723Z,4.32
2022-09-16T22:56:42.357Z,0.10
2022-09-16T22:59:17.830Z,0.30
2022-09-16T23:01:45.565Z,0.43
2022-09-16T23:04:13.090Z,0.30
2022-09-16T23:06:41.177Z,2.67
2022-09-16T23:09:11.302Z,3.03
2022-09-16T23:11:38.660Z,0.45
2022-09-16T23:14:06.601Z,1.42
2022-09-16T23:16:36.338Z,0.57
2022-09-16T23:19:07.148Z,0.20
2022-09-16T23:21:34.586Z,0.43
2022-09-16T23:24:04.239Z,0.38
2022-09-16T23:26:42.519Z,0.00
2022-09-16T23:29:11.055Z,0.28
2022-09-16T23:31:43.300Z,0.10
2022-09-16T23:34:20.002Z,0.00
2022-09-16T23:36:48.470Z,4.03
2022-09-16T23:39:16.581Z,5.53
2022-09-16T23:41:45.077Z,2.17
2022-09-16T23:44:14.851Z,0.52
2022-09-16T23:47:03.405Z,0.70
2022-09-16T23:49:30.676Z,1.40
2022-09-16T23:51:58.034Z,0.65
2022-09-16T23:54:25.289Z,0.73
2022-09-16T23:56:52.541Z,0.25
2022-09-16T23:59:19.816Z,3.03
